Terminal Aerodrome Forecast
Issued by NWS Wilmington, OH

Current Version | Previous Version | Graphics & Text | Print | Product List | Glossary On
Versions: 1 2 3 4 5 6 7 8 9 10 11 12 13 14 15 16
000
FTUS41 KILN 081501 AAA
TAFCMH
TAF AMD
KCMH 081501Z 0815/0912 23008KT P6SM SCT250
     FM090000 22005KT P6SM FEW250
     FM090800 17004KT P6SM SCT100=

USA.gov is the U.S. government's official web portal to all federal, state and local government web resources and services.